Quilombo, Brazil
Current Conditions -  °F | °C
As of 12:00 AM on Tuesday 23 Dec 2014 (Local Time) from SBCH Reporting Station
Clear Clear  
Wind Chill: 66°   Ceiling: Unl
Heat Index: 66°   Visibility: 6mi
Dew Point: 57°   Wind: 14mph
Humidity: 73%   Direction: 130°SE
Pressure: 30.03"   Gusts: NA
Location:  26.73°S, 52.72°W
Report Text: SBCH 230200Z 13012KT CAVOK 19/14 Q1017
Loading
Personal Weather Stations






























Interactive Weather Map New forecast layout! Learn more

10-Day Weather Forecast

Advertisements
Track Severe Weather on mobile